<?xml version="1.0" encoding="UTF-8" standalone="no" ?>
<gpx xmlns="http://www.topografix.com/GPX/1/1" xmlns:xsi="http://www.w3.org/2001/XMLSchema-instance" xsi:schemaLocation="http://www.topografix.com/GPX/1/1 http://www.topografix.com/GPX/1/1/gpx.xsd" version="1.1" creator="VisuGPX - https://www.visugpx.com">
  <metadata>
    <name>Trace VTTAE Le Chesnay Poissy St G 50 km 650D+</name>
    <desc><![CDATA[A tester]]></desc>
  </metadata>
  <trk>
    <name><![CDATA[Maps3D 2022-04-22 03-36pm feuch ]]></name>
    <extensions>
      <line xmlns="http://www.topografix.com/GPX/gpx_style/0/2">
        <color>0000FF</color>
        <width>4</width>
          <extensions>
            <sens>1</sens>
          </extensions>
      </line>
    </extensions>
    <trkseg>
      <trkpt lat="48.82883" lon="2.13373">
        <ele>144.2</ele>
        <time>2022-04-22T10:18:11Z</time>
      </trkpt>
      <trkpt lat="48.82801" lon="2.13812">
        <ele>136</ele>
      </trkpt>
      <trkpt lat="48.82797" lon="2.13857">
        <ele>135.7</ele>
        <time>2022-04-22T10:18:27Z</time>
      </trkpt>
      <trkpt lat="48.82798" lon="2.13895">
        <ele>136.2</ele>
      </trkpt>
      <trkpt lat="48.82797" lon="2.13919">
        <ele>137.2</ele>
      </trkpt>
      <trkpt lat="48.82834" lon="2.13915">
        <ele>137</ele>
      </trkpt>
      <trkpt lat="48.8287" lon="2.13905">
        <ele>137.6</ele>
      </trkpt>
      <trkpt lat="48.82903" lon="2.13865">
        <ele>138.6</ele>
      </trkpt>
      <trkpt lat="48.82971" lon="2.13873">
        <ele>154.041306</ele>
        <time>2022-04-22T10:18:43Z</time>
      </trkpt>
      <trkpt lat="48.8302" lon="2.13883">
        <ele>161.528564</ele>
        <time>2022-04-22T10:18:58Z</time>
      </trkpt>
      <trkpt lat="48.83071" lon="2.13892">
        <ele>169.891235</ele>
        <time>2022-04-22T10:19:14Z</time>
      </trkpt>
      <trkpt lat="48.83117" lon="2.13901">
        <ele>175.180435</ele>
        <time>2022-04-22T10:19:30Z</time>
      </trkpt>
      <trkpt lat="48.8317" lon="2.13908">
        <ele>179.788727</ele>
        <time>2022-04-22T10:19:45Z</time>
      </trkpt>
      <trkpt lat="48.83219" lon="2.13841">
        <ele>179.320999</ele>
        <time>2022-04-22T10:20:01Z</time>
      </trkpt>
      <trkpt lat="48.83248" lon="2.13714">
        <ele>177.856018</ele>
        <time>2022-04-22T10:20:16Z</time>
      </trkpt>
      <trkpt lat="48.83279" lon="2.13583">
        <ele>180.357925</ele>
        <time>2022-04-22T10:20:32Z</time>
      </trkpt>
      <trkpt lat="48.83297" lon="2.13483">
        <ele>175.7</ele>
        <time>2022-04-22T10:20:47Z</time>
      </trkpt>
      <trkpt lat="48.83324" lon="2.13371">
        <ele>175.8</ele>
        <time>2022-04-22T10:21:03Z</time>
      </trkpt>
      <trkpt lat="48.83326" lon="2.13361">
        <ele>175.7</ele>
      </trkpt>
      <trkpt lat="48.83381" lon="2.13282">
        <ele>176</ele>
      </trkpt>
      <trkpt lat="48.83393" lon="2.13262">
        <ele>176</ele>
        <time>2022-04-22T10:21:18Z</time>
      </trkpt>
      <trkpt lat="48.83437" lon="2.13143">
        <ele>175.8</ele>
        <time>2022-04-22T10:21:34Z</time>
      </trkpt>
      <trkpt lat="48.83508" lon="2.13065">
        <ele>176.606689</ele>
        <time>2022-04-22T10:21:49Z</time>
      </trkpt>
      <trkpt lat="48.83502" lon="2.12981">
        <ele>173.7</ele>
        <time>2022-04-22T10:22:04Z</time>
      </trkpt>
      <trkpt lat="48.83537" lon="2.1294">
        <ele>175.876099</ele>
        <time>2022-04-22T10:22:20Z</time>
      </trkpt>
      <trkpt lat="48.83573" lon="2.1294">
        <ele>176.759521</ele>
        <time>2022-04-22T10:22:35Z</time>
      </trkpt>
      <trkpt lat="48.83626" lon="2.12925">
        <ele>174.9</ele>
        <time>2022-04-22T10:22:51Z</time>
      </trkpt>
      <trkpt lat="48.83679" lon="2.12816">
        <ele>182.791122</ele>
        <time>2022-04-22T10:23:07Z</time>
      </trkpt>
      <trkpt lat="48.83739" lon="2.12717">
        <ele>184.040695</ele>
        <time>2022-04-22T10:23:23Z</time>
      </trkpt>
      <trkpt lat="48.83776" lon="2.12647">
        <ele>175</ele>
      </trkpt>
      <trkpt lat="48.83777" lon="2.12607">
        <ele>182.222046</ele>
        <time>2022-04-22T10:23:38Z</time>
      </trkpt>
      <trkpt lat="48.83782" lon="2.12544">
        <ele>175</ele>
      </trkpt>
      <trkpt lat="48.83811" lon="2.12503">
        <ele>182.149094</ele>
        <time>2022-04-22T10:23:53Z</time>
      </trkpt>
      <trkpt lat="48.83873" lon="2.12427">
        <ele>173.7</ele>
        <time>2022-04-22T10:24:09Z</time>
      </trkpt>
      <trkpt lat="48.83869" lon="2.12353">
        <ele>173.8</ele>
      </trkpt>
      <trkpt lat="48.83884" lon="2.1229">
        <ele>178.978149</ele>
        <time>2022-04-22T10:24:24Z</time>
      </trkpt>
      <trkpt lat="48.83926" lon="2.12157">
        <ele>181.556641</ele>
        <time>2022-04-22T10:24:40Z</time>
      </trkpt>
      <trkpt lat="48.83969" lon="2.12043">
        <ele>180.651138</ele>
        <time>2022-04-22T10:24:56Z</time>
      </trkpt>
      <trkpt lat="48.83976" lon="2.12016">
        <ele>172.9</ele>
      </trkpt>
      <trkpt lat="48.83982" lon="2.12005">
        <ele>172.9</ele>
      </trkpt>
      <trkpt lat="48.84024" lon="2.11993">
        <ele>177.929291</ele>
        <time>2022-04-22T10:25:11Z</time>
      </trkpt>
      <trkpt lat="48.84048" lon="2.11987">
        <ele>176.0336</ele>
        <time>2022-04-22T10:25:27Z</time>
      </trkpt>
      <trkpt lat="48.84063" lon="2.11986">
        <ele>174.92041</ele>
        <time>2022-04-22T10:26:18Z</time>
      </trkpt>
      <trkpt lat="48.84117" lon="2.12046">
        <ele>172.735291</ele>
        <time>2022-04-22T10:26:33Z</time>
      </trkpt>
      <trkpt lat="48.84179" lon="2.1195">
        <ele>174.601532</ele>
        <time>2022-04-22T10:26:49Z</time>
      </trkpt>
      <trkpt lat="48.84285" lon="2.11763">
        <ele>170.9</ele>
        <time>2022-04-22T10:27:05Z</time>
      </trkpt>
      <trkpt lat="48.84395" lon="2.1198">
        <ele>156.7</ele>
      </trkpt>
      <trkpt lat="48.84453" lon="2.12143">
        <ele>139.6</ele>
      </trkpt>
      <trkpt lat="48.84488" lon="2.11989">
        <ele>141</ele>
      </trkpt>
      <trkpt lat="48.8456" lon="2.11937">
        <ele>139</ele>
      </trkpt>
      <trkpt lat="48.84642" lon="2.11875">
        <ele>138.6</ele>
      </trkpt>
      <trkpt lat="48.8467" lon="2.11684">
        <ele>152.7</ele>
      </trkpt>
      <trkpt lat="48.84491" lon="2.11493">
        <ele>172.391891</ele>
        <time>2022-04-22T10:29:10Z</time>
      </trkpt>
      <trkpt lat="48.84548" lon="2.114">
        <ele>171.581604</ele>
        <time>2022-04-22T10:29:25Z</time>
      </trkpt>
      <trkpt lat="48.84613" lon="2.11307">
        <ele>171.675491</ele>
        <time>2022-04-22T10:29:41Z</time>
      </trkpt>
      <trkpt lat="48.84689" lon="2.11282">
        <ele>164.4</ele>
        <time>2022-04-22T10:29:56Z</time>
      </trkpt>
      <trkpt lat="48.84745" lon="2.11172">
        <ele>172.991959</ele>
        <time>2022-04-22T10:30:12Z</time>
      </trkpt>
      <trkpt lat="48.84815" lon="2.11084">
        <ele>172.21907</ele>
        <time>2022-04-22T10:30:27Z</time>
      </trkpt>
      <trkpt lat="48.84845" lon="2.11019">
        <ele>164.3</ele>
      </trkpt>
      <trkpt lat="48.84861" lon="2.11023">
        <ele>164.2</ele>
      </trkpt>
      <trkpt lat="48.84868" lon="2.11055">
        <ele>164.5</ele>
        <time>2022-04-22T10:30:43Z</time>
      </trkpt>
      <trkpt lat="48.84865" lon="2.11119">
        <ele>164.3</ele>
      </trkpt>
      <trkpt lat="48.84856" lon="2.11184">
        <ele>164.8</ele>
        <time>2022-04-22T10:30:59Z</time>
      </trkpt>
      <trkpt lat="48.84849" lon="2.11216">
        <ele>165</ele>
      </trkpt>
      <trkpt lat="48.84859" lon="2.11255">
        <ele>165.9</ele>
      </trkpt>
      <trkpt lat="48.84868" lon="2.1131">
        <ele>166.6</ele>
        <time>2022-04-22T10:31:15Z</time>
      </trkpt>
      <trkpt lat="48.84871" lon="2.1137">
        <ele>167.5</ele>
      </trkpt>
      <trkpt lat="48.84888" lon="2.11424">
        <ele>168.7</ele>
        <time>2022-04-22T10:31:30Z</time>
      </trkpt>
      <trkpt lat="48.84886" lon="2.11532">
        <ele>172.571167</ele>
        <time>2022-04-22T10:31:46Z</time>
      </trkpt>
      <trkpt lat="48.849" lon="2.11586">
        <ele>173.459381</ele>
        <time>2022-04-22T10:32:02Z</time>
      </trkpt>
      <trkpt lat="48.84957" lon="2.11581">
        <ele>174.937042</ele>
        <time>2022-04-22T10:32:17Z</time>
      </trkpt>
      <trkpt lat="48.8504" lon="2.1157">
        <ele>177.025146</ele>
        <time>2022-04-22T10:32:33Z</time>
      </trkpt>
      <trkpt lat="48.85135" lon="2.11554">
        <ele>178.535477</ele>
        <time>2022-04-22T10:32:49Z</time>
      </trkpt>
      <trkpt lat="48.85226" lon="2.1154">
        <ele>174.976944</ele>
        <time>2022-04-22T10:33:05Z</time>
      </trkpt>
      <trkpt lat="48.85264" lon="2.11536">
        <ele>171.2</ele>
        <time>2022-04-22T10:33:20Z</time>
      </trkpt>
      <trkpt lat="48.85426" lon="2.11641">
        <ele>165.7</ele>
      </trkpt>
      <trkpt lat="48.85437" lon="2.11608">
        <ele>165.3</ele>
      </trkpt>
      <trkpt lat="48.8544" lon="2.11317">
        <ele>164.5</ele>
      </trkpt>
      <trkpt lat="48.85507" lon="2.11198">
        <ele>165.8</ele>
        <time>2022-04-22T10:33:36Z</time>
      </trkpt>
      <trkpt lat="48.85533" lon="2.11164">
        <ele>166.8</ele>
        <time>2022-04-22T10:48:14Z</time>
      </trkpt>
      <trkpt lat="48.85532" lon="2.11066">
        <ele>173.467285</ele>
        <time>2022-04-22T10:48:29Z</time>
      </trkpt>
      <trkpt lat="48.85606" lon="2.10973">
        <ele>170.947891</ele>
        <time>2022-04-22T10:48:45Z</time>
      </trkpt>
      <trkpt lat="48.85654" lon="2.10908">
        <ele>169.681992</ele>
        <time>2022-04-22T10:49:00Z</time>
      </trkpt>
      <trkpt lat="48.85599" lon="2.10841">
        <ele>174.493591</ele>
        <time>2022-04-22T10:49:16Z</time>
      </trkpt>
      <trkpt lat="48.85556" lon="2.1075">
        <ele>177.000092</ele>
        <time>2022-04-22T10:49:32Z</time>
      </trkpt>
      <trkpt lat="48.85546" lon="2.10735">
        <ele>176.937546</ele>
        <time>2022-04-22T10:49:49Z</time>
      </trkpt>
      <trkpt lat="48.85515" lon="2.10722">
        <ele>176.503204</ele>
        <time>2022-04-22T10:50:04Z</time>
      </trkpt>
      <trkpt lat="48.85459" lon="2.10733">
        <ele>177.295898</ele>
        <time>2022-04-22T10:50:20Z</time>
      </trkpt>
      <trkpt lat="48.85423" lon="2.1072">
        <ele>177.860138</ele>
        <time>2022-04-22T10:50:35Z</time>
      </trkpt>
      <trkpt lat="48.8541" lon="2.1059">
        <ele>179.401016</ele>
        <time>2022-04-22T10:50:51Z</time>
      </trkpt>
      <trkpt lat="48.85395" lon="2.10462">
        <ele>181.914413</ele>
        <time>2022-04-22T10:51:06Z</time>
      </trkpt>
      <trkpt lat="48.85387" lon="2.10313">
        <ele>180.864502</ele>
        <time>2022-04-22T10:51:21Z</time>
      </trkpt>
      <trkpt lat="48.85405" lon="2.1024">
        <ele>173</ele>
      </trkpt>
      <trkpt lat="48.85434" lon="2.10179">
        <ele>178.414597</ele>
        <time>2022-04-22T10:51:37Z</time>
      </trkpt>
      <trkpt lat="48.85473" lon="2.10147">
        <ele>173</ele>
      </trkpt>
      <trkpt lat="48.85501" lon="2.10093">
        <ele>180.537933</ele>
        <time>2022-04-22T10:51:53Z</time>
      </trkpt>
      <trkpt lat="48.85565" lon="2.10025">
        <ele>169.6</ele>
        <time>2022-04-22T10:52:08Z</time>
      </trkpt>
      <trkpt lat="48.85567" lon="2.09984">
        <ele>168</ele>
      </trkpt>
      <trkpt lat="48.85573" lon="2.09926">
        <ele>174.710068</ele>
        <time>2022-04-22T10:52:24Z</time>
      </trkpt>
      <trkpt lat="48.85571" lon="2.09872">
        <ele>161.7</ele>
      </trkpt>
      <trkpt lat="48.85594" lon="2.09821">
        <ele>173.146408</ele>
        <time>2022-04-22T10:52:39Z</time>
      </trkpt>
      <trkpt lat="48.85614" lon="2.09769">
        <ele>157.6</ele>
        <time>2022-04-22T10:52:55Z</time>
      </trkpt>
      <trkpt lat="48.85682" lon="2.09625">
        <ele>174.296082</ele>
        <time>2022-04-22T10:55:29Z</time>
      </trkpt>
      <trkpt lat="48.85685" lon="2.09574">
        <ele>176.094055</ele>
        <time>2022-04-22T10:55:44Z</time>
      </trkpt>
      <trkpt lat="48.8573" lon="2.09485">
        <ele>174.551178</ele>
        <time>2022-04-22T10:56:00Z</time>
      </trkpt>
      <trkpt lat="48.85791" lon="2.0942">
        <ele>171.399826</ele>
        <time>2022-04-22T10:56:16Z</time>
      </trkpt>
      <trkpt lat="48.85835" lon="2.09348">
        <ele>174.82457</ele>
        <time>2022-04-22T10:56:32Z</time>
      </trkpt>
      <trkpt lat="48.8588" lon="2.09313">
        <ele>177.003281</ele>
        <time>2022-04-22T10:56:48Z</time>
      </trkpt>
      <trkpt lat="48.85947" lon="2.09304">
        <ele>175.698044</ele>
        <time>2022-04-22T10:57:04Z</time>
      </trkpt>
      <trkpt lat="48.86032" lon="2.09253">
        <ele>166.9</ele>
        <time>2022-04-22T10:57:20Z</time>
      </trkpt>
      <trkpt lat="48.86143" lon="2.09225">
        <ele>166.9</ele>
        <time>2022-04-22T10:57:35Z</time>
      </trkpt>
      <trkpt lat="48.8618" lon="2.09203">
        <ele>166.5</ele>
        <time>2022-04-22T10:57:51Z</time>
      </trkpt>
      <trkpt lat="48.86192" lon="2.09206">
        <ele>166.1</ele>
      </trkpt>
      <trkpt lat="48.86204" lon="2.09198">
        <ele>166</ele>
      </trkpt>
      <trkpt lat="48.86215" lon="2.09197">
        <ele>165.9</ele>
        <time>2022-04-22T10:58:06Z</time>
      </trkpt>
      <trkpt lat="48.8623" lon="2.09139">
        <ele>170.91861</ele>
        <time>2022-04-22T10:58:21Z</time>
      </trkpt>
      <trkpt lat="48.86257" lon="2.09018">
        <ele>172.919815</ele>
        <time>2022-04-22T10:58:37Z</time>
      </trkpt>
      <trkpt lat="48.86282" lon="2.08903">
        <ele>176.017212</ele>
        <time>2022-04-22T10:58:52Z</time>
      </trkpt>
      <trkpt lat="48.86265" lon="2.08793">
        <ele>176.982346</ele>
        <time>2022-04-22T10:59:08Z</time>
      </trkpt>
      <trkpt lat="48.86294" lon="2.08739">
        <ele>175.429657</ele>
        <time>2022-04-22T10:59:24Z</time>
      </trkpt>
      <trkpt lat="48.86392" lon="2.08732">
        <ele>172.805908</ele>
        <time>2022-04-22T10:59:40Z</time>
      </trkpt>
      <trkpt lat="48.86425" lon="2.08732">
        <ele>167</ele>
      </trkpt>
      <trkpt lat="48.86468" lon="2.08709">
        <ele>166.2</ele>
        <time>2022-04-22T10:59:55Z</time>
      </trkpt>
      <trkpt lat="48.86478" lon="2.08676">
        <ele>169.946701</ele>
        <time>2022-04-22T11:00:11Z</time>
      </trkpt>
      <trkpt lat="48.86487" lon="2.08659">
        <ele>169.934845</ele>
        <time>2022-04-22T11:01:10Z</time>
      </trkpt>
      <trkpt lat="48.86632" lon="2.08661">
        <ele>154.4</ele>
      </trkpt>
      <trkpt lat="48.86764" lon="2.08661">
        <ele>153.3</ele>
        <time>2022-04-22T11:01:26Z</time>
      </trkpt>
      <trkpt lat="48.86761" lon="2.08498">
        <ele>159.8</ele>
      </trkpt>
      <trkpt lat="48.8663" lon="2.08318">
        <ele>163.7</ele>
      </trkpt>
      <trkpt lat="48.86589" lon="2.08264">
        <ele>163.2</ele>
        <time>2022-04-22T11:07:06Z</time>
      </trkpt>
      <trkpt lat="48.86529" lon="2.08245">
        <ele>165.6</ele>
        <time>2022-04-22T11:07:22Z</time>
      </trkpt>
      <trkpt lat="48.86483" lon="2.08232">
        <ele>166.7</ele>
        <time>2022-04-22T11:07:37Z</time>
      </trkpt>
      <trkpt lat="48.86444" lon="2.08218">
        <ele>167.9</ele>
        <time>2022-04-22T11:07:53Z</time>
      </trkpt>
      <trkpt lat="48.86403" lon="2.08202">
        <ele>168.6</ele>
        <time>2022-04-22T11:08:08Z</time>
      </trkpt>
      <trkpt lat="48.86383" lon="2.08188">
        <ele>169.2</ele>
      </trkpt>
      <trkpt lat="48.86377" lon="2.08153">
        <ele>168.5</ele>
        <time>2022-04-22T11:08:24Z</time>
      </trkpt>
      <trkpt lat="48.86363" lon="2.08139">
        <ele>174.258926</ele>
        <time>2022-04-22T11:09:39Z</time>
      </trkpt>
      <trkpt lat="48.86311" lon="2.08136">
        <ele>174.659393</ele>
        <time>2022-04-22T11:09:54Z</time>
      </trkpt>
      <trkpt lat="48.86255" lon="2.08098">
        <ele>160.5</ele>
        <time>2022-04-22T11:10:09Z</time>
      </trkpt>
      <trkpt lat="48.86065" lon="2.07948">
        <ele>130.5</ele>
      </trkpt>
      <trkpt lat="48.85985" lon="2.07799">
        <ele>124.4</ele>
      </trkpt>
      <trkpt lat="48.85959" lon="2.07596">
        <ele>141.973816</ele>
        <time>2022-04-22T11:20:28Z</time>
      </trkpt>
      <trkpt lat="48.85946" lon="2.07562">
        <ele>131.6</ele>
        <time>2022-04-22T11:22:01Z</time>
      </trkpt>
      <trkpt lat="48.85922" lon="2.07431">
        <ele>133.6</ele>
        <time>2022-04-22T11:22:16Z</time>
      </trkpt>
      <trkpt lat="48.85915" lon="2.07357">
        <ele>135.6</ele>
        <time>2022-04-22T11:22:32Z</time>
      </trkpt>
      <trkpt lat="48.85937" lon="2.07283">
        <ele>140.3</ele>
        <time>2022-04-22T11:22:48Z</time>
      </trkpt>
      <trkpt lat="48.85951" lon="2.07182">
        <ele>142.5</ele>
      </trkpt>
      <trkpt lat="48.85957" lon="2.07142">
        <ele>141.6</ele>
        <time>2022-04-22T11:23:04Z</time>
      </trkpt>
      <trkpt lat="48.85955" lon="2.07104">
        <ele>140.4</ele>
        <time>2022-04-22T11:23:19Z</time>
      </trkpt>
      <trkpt lat="48.8596" lon="2.07095">
        <ele>144.286896</ele>
        <time>2022-04-22T11:23:34Z</time>
      </trkpt>
      <trkpt lat="48.85953" lon="2.07077">
        <ele>144.974609</ele>
        <time>2022-04-22T11:24:14Z</time>
      </trkpt>
      <trkpt lat="48.85958" lon="2.07058">
        <ele>144.535065</ele>
        <time>2022-04-22T11:24:43Z</time>
      </trkpt>
      <trkpt lat="48.85956" lon="2.07024">
        <ele>144.652603</ele>
        <time>2022-04-22T11:24:59Z</time>
      </trkpt>
      <trkpt lat="48.85957" lon="2.06978">
        <ele>144.855453</ele>
        <time>2022-04-22T11:25:14Z</time>
      </trkpt>
      <trkpt lat="48.85991" lon="2.0688">
        <ele>144.712021</ele>
        <time>2022-04-22T11:25:29Z</time>
      </trkpt>
      <trkpt lat="48.86048" lon="2.06742">
        <ele>137.733658</ele>
        <time>2022-04-22T11:25:45Z</time>
      </trkpt>
      <trkpt lat="48.86068" lon="2.06702">
        <ele>135.869736</ele>
        <time>2022-04-22T11:26:01Z</time>
      </trkpt>
      <trkpt lat="48.86079" lon="2.06687">
        <ele>134.87323</ele>
        <time>2022-04-22T11:26:30Z</time>
      </trkpt>
      <trkpt lat="48.86077" lon="2.06666">
        <ele>135.892212</ele>
        <time>2022-04-22T11:26:54Z</time>
      </trkpt>
      <trkpt lat="48.86239" lon="2.05998">
        <ele>128.9</ele>
        <time>2022-04-22T11:35:22Z</time>
      </trkpt>
      <trkpt lat="48.8627" lon="2.05889">
        <ele>129.3</ele>
        <time>2022-04-22T11:35:38Z</time>
      </trkpt>
      <trkpt lat="48.86295" lon="2.05743">
        <ele>129.1</ele>
        <time>2022-04-22T11:35:54Z</time>
      </trkpt>
      <trkpt lat="48.86344" lon="2.05513">
        <ele>121.2</ele>
      </trkpt>
      <trkpt lat="48.86371" lon="2.05377">
        <ele>123.7</ele>
        <time>2022-04-22T11:36:09Z</time>
      </trkpt>
      <trkpt lat="48.86277" lon="2.05254">
        <ele>129.7</ele>
        <time>2022-04-22T11:36:25Z</time>
      </trkpt>
      <trkpt lat="48.86325" lon="2.0519">
        <ele>131.7</ele>
        <time>2022-04-22T11:36:41Z</time>
      </trkpt>
      <trkpt lat="48.86331" lon="2.05117">
        <ele>134.1</ele>
        <time>2022-04-22T11:36:57Z</time>
      </trkpt>
      <trkpt lat="48.86332" lon="2.05029">
        <ele>135.9</ele>
        <time>2022-04-22T11:37:13Z</time>
      </trkpt>
      <trkpt lat="48.86541" lon="2.04929">
        <ele>143.8</ele>
      </trkpt>
      <trkpt lat="48.86557" lon="2.04861">
        <ele>148</ele>
        <time>2022-04-22T11:37:28Z</time>
      </trkpt>
      <trkpt lat="48.86592" lon="2.04615">
        <ele>160.2</ele>
        <time>2022-04-22T11:37:44Z</time>
      </trkpt>
      <trkpt lat="48.86638" lon="2.04766">
        <ele>148.5</ele>
        <time>2022-04-22T11:37:59Z</time>
      </trkpt>
      <trkpt lat="48.8679" lon="2.04429">
        <ele>145.7</ele>
        <time>2022-04-22T11:38:15Z</time>
      </trkpt>
      <trkpt lat="48.87124" lon="2.04466">
        <ele>158.5</ele>
      </trkpt>
      <trkpt lat="48.87156" lon="2.0447">
        <ele>163.5</ele>
        <time>2022-04-22T11:45:48Z</time>
      </trkpt>
      <trkpt lat="48.87633" lon="2.04513">
        <ele>167.6</ele>
        <time>2022-04-22T12:01:37Z</time>
      </trkpt>
      <trkpt lat="48.87941" lon="2.04558">
        <ele>153.4</ele>
        <time>2022-04-22T12:01:52Z</time>
      </trkpt>
      <trkpt lat="48.88183" lon="2.04856">
        <ele>137.1</ele>
        <time>2022-04-22T12:02:07Z</time>
      </trkpt>
      <trkpt lat="48.88286" lon="2.04794">
        <ele>127.8</ele>
        <time>2022-04-22T12:02:23Z</time>
      </trkpt>
      <trkpt lat="48.88855" lon="2.05198">
        <ele>118.3</ele>
        <time>2022-04-22T12:02:38Z</time>
      </trkpt>
      <trkpt lat="48.88914" lon="2.05235">
        <ele>117.1</ele>
        <time>2022-04-22T12:02:53Z</time>
      </trkpt>
      <trkpt lat="48.88933" lon="2.05178">
        <ele>113.5</ele>
        <time>2022-04-22T12:08:52Z</time>
      </trkpt>
      <trkpt lat="48.89" lon="2.05189">
        <ele>108.6</ele>
        <time>2022-04-22T12:09:07Z</time>
      </trkpt>
      <trkpt lat="48.89051" lon="2.05224">
        <ele>106.4</ele>
        <time>2022-04-22T12:09:23Z</time>
      </trkpt>
      <trkpt lat="48.89121" lon="2.05183">
        <ele>103.6</ele>
        <time>2022-04-22T12:09:38Z</time>
      </trkpt>
      <trkpt lat="48.89136" lon="2.05169">
        <ele>103.1</ele>
      </trkpt>
      <trkpt lat="48.89147" lon="2.05124">
        <ele>102.1</ele>
      </trkpt>
      <trkpt lat="48.89192" lon="2.05139">
        <ele>103</ele>
      </trkpt>
      <trkpt lat="48.89224" lon="2.05124">
        <ele>103.4</ele>
        <time>2022-04-22T12:09:53Z</time>
      </trkpt>
      <trkpt lat="48.89278" lon="2.05095">
        <ele>102.4</ele>
      </trkpt>
      <trkpt lat="48.89338" lon="2.05138">
        <ele>101.8</ele>
      </trkpt>
      <trkpt lat="48.89412" lon="2.05163">
        <ele>96.5</ele>
      </trkpt>
      <trkpt lat="48.89488" lon="2.0519">
        <ele>91.8</ele>
      </trkpt>
      <trkpt lat="48.89543" lon="2.05214">
        <ele>87.1</ele>
      </trkpt>
      <trkpt lat="48.89627" lon="2.053">
        <ele>81.9</ele>
      </trkpt>
      <trkpt lat="48.89689" lon="2.05363">
        <ele>79.5</ele>
      </trkpt>
      <trkpt lat="48.89774" lon="2.05477">
        <ele>79.8</ele>
      </trkpt>
      <trkpt lat="48.89842" lon="2.05612">
        <ele>99.9</ele>
      </trkpt>
      <trkpt lat="48.89917" lon="2.05517">
        <ele>99.3</ele>
      </trkpt>
      <trkpt lat="48.90179" lon="2.06013">
        <ele>85.4</ele>
      </trkpt>
      <trkpt lat="48.90369" lon="2.06393">
        <ele>75.7</ele>
      </trkpt>
      <trkpt lat="48.90493" lon="2.06524">
        <ele>72</ele>
      </trkpt>
      <trkpt lat="48.90716" lon="2.06807">
        <ele>73</ele>
      </trkpt>
      <trkpt lat="48.90834" lon="2.06631">
        <ele>76</ele>
      </trkpt>
      <trkpt lat="48.90972" lon="2.06412">
        <ele>75.8</ele>
        <time>2022-04-22T12:10:09Z</time>
      </trkpt>
      <trkpt lat="48.9102" lon="2.06322">
        <ele>70</ele>
      </trkpt>
      <trkpt lat="48.91174" lon="2.06459">
        <ele>69.7</ele>
      </trkpt>
      <trkpt lat="48.91323" lon="2.06584">
        <ele>73</ele>
      </trkpt>
      <trkpt lat="48.91435" lon="2.06778">
        <ele>75</ele>
      </trkpt>
      <trkpt lat="48.91682" lon="2.07309">
        <ele>75.5</ele>
      </trkpt>
      <trkpt lat="48.91751" lon="2.07458">
        <ele>76</ele>
      </trkpt>
      <trkpt lat="48.92287" lon="2.07706">
        <ele>68.7</ele>
      </trkpt>
      <trkpt lat="48.92275" lon="2.07903">
        <ele>68.6</ele>
      </trkpt>
      <trkpt lat="48.92225" lon="2.08414">
        <ele>72</ele>
      </trkpt>
      <trkpt lat="48.91993" lon="2.09015">
        <ele>77</ele>
      </trkpt>
      <trkpt lat="48.91954" lon="2.09114">
        <ele>77</ele>
      </trkpt>
      <trkpt lat="48.92047" lon="2.09139">
        <ele>76</ele>
      </trkpt>
      <trkpt lat="48.92064" lon="2.09255">
        <ele>76</ele>
      </trkpt>
      <trkpt lat="48.92139" lon="2.0934">
        <ele>76</ele>
      </trkpt>
      <trkpt lat="48.92007" lon="2.09577">
        <ele>75.2</ele>
      </trkpt>
      <trkpt lat="48.91945" lon="2.09707">
        <ele>74</ele>
      </trkpt>
      <trkpt lat="48.9192" lon="2.09761">
        <ele>72.2</ele>
      </trkpt>
      <trkpt lat="48.91844" lon="2.09898">
        <ele>66.3</ele>
      </trkpt>
      <trkpt lat="48.91804" lon="2.09973">
        <ele>63.9</ele>
      </trkpt>
      <trkpt lat="48.9186" lon="2.10069">
        <ele>64.5</ele>
      </trkpt>
      <trkpt lat="48.91894" lon="2.10152">
        <ele>64.1</ele>
      </trkpt>
      <trkpt lat="48.91906" lon="2.10217">
        <ele>62.8</ele>
      </trkpt>
      <trkpt lat="48.91873" lon="2.10456">
        <ele>56.7</ele>
      </trkpt>
      <trkpt lat="48.91862" lon="2.10541">
        <ele>60.4</ele>
      </trkpt>
      <trkpt lat="48.91948" lon="2.10691">
        <ele>55.3</ele>
      </trkpt>
      <trkpt lat="48.91832" lon="2.10773">
        <ele>69</ele>
      </trkpt>
      <trkpt lat="48.91845" lon="2.10865">
        <ele>72.6</ele>
      </trkpt>
      <trkpt lat="48.91833" lon="2.10968">
        <ele>72</ele>
      </trkpt>
      <trkpt lat="48.91869" lon="2.11009">
        <ele>71</ele>
      </trkpt>
      <trkpt lat="48.91895" lon="2.11003">
        <ele>71.9</ele>
      </trkpt>
      <trkpt lat="48.91938" lon="2.10892">
        <ele>65.4</ele>
      </trkpt>
      <trkpt lat="48.919" lon="2.10856">
        <ele>66.2</ele>
      </trkpt>
      <trkpt lat="48.91942" lon="2.10791">
        <ele>61.7</ele>
      </trkpt>
      <trkpt lat="48.92005" lon="2.10747">
        <ele>47.5</ele>
      </trkpt>
      <trkpt lat="48.92019" lon="2.10726">
        <ele>47.4</ele>
      </trkpt>
      <trkpt lat="48.92026" lon="2.10651">
        <ele>55.8</ele>
      </trkpt>
      <trkpt lat="48.92062" lon="2.10612">
        <ele>60.5</ele>
      </trkpt>
      <trkpt lat="48.92201" lon="2.10506">
        <ele>72.1</ele>
      </trkpt>
      <trkpt lat="48.9243" lon="2.10294">
        <ele>72.5</ele>
      </trkpt>
      <trkpt lat="48.9269" lon="2.10032">
        <ele>72</ele>
      </trkpt>
      <trkpt lat="48.92749" lon="2.09564">
        <ele>72</ele>
      </trkpt>
      <trkpt lat="48.92825" lon="2.08697">
        <ele>64.3</ele>
      </trkpt>
      <trkpt lat="48.9289" lon="2.07998">
        <ele>69.1</ele>
      </trkpt>
      <trkpt lat="48.92591" lon="2.07539">
        <ele>72</ele>
      </trkpt>
      <trkpt lat="48.9232" lon="2.07131">
        <ele>71.3</ele>
      </trkpt>
      <trkpt lat="48.9269" lon="2.06255">
        <ele>61.7</ele>
      </trkpt>
      <trkpt lat="48.92306" lon="2.05796">
        <ele>63</ele>
      </trkpt>
      <trkpt lat="48.92346" lon="2.05449">
        <ele>61</ele>
      </trkpt>
      <trkpt lat="48.92226" lon="2.05148">
        <ele>66.1</ele>
      </trkpt>
      <trkpt lat="48.92074" lon="2.05008">
        <ele>67</ele>
      </trkpt>
      <trkpt lat="48.91962" lon="2.0494">
        <ele>63.7</ele>
      </trkpt>
      <trkpt lat="48.91923" lon="2.04907">
        <ele>63.2</ele>
      </trkpt>
      <trkpt lat="48.91923" lon="2.04891">
        <ele>64.1</ele>
      </trkpt>
      <trkpt lat="48.92038" lon="2.0474">
        <ele>67.1</ele>
      </trkpt>
      <trkpt lat="48.91977" lon="2.04599">
        <ele>69.6</ele>
      </trkpt>
      <trkpt lat="48.9193" lon="2.04609">
        <ele>68.5</ele>
      </trkpt>
      <trkpt lat="48.91859" lon="2.04541">
        <ele>67.5</ele>
      </trkpt>
      <trkpt lat="48.91771" lon="2.04525">
        <ele>67.7</ele>
      </trkpt>
      <trkpt lat="48.91714" lon="2.04535">
        <ele>64.7</ele>
      </trkpt>
      <trkpt lat="48.90623" lon="2.0635">
        <ele>70</ele>
      </trkpt>
      <trkpt lat="48.90458" lon="2.06273">
        <ele>74.5</ele>
      </trkpt>
      <trkpt lat="48.90355" lon="2.06397">
        <ele>76.2</ele>
      </trkpt>
      <trkpt lat="48.89915" lon="2.055">
        <ele>97.9</ele>
      </trkpt>
      <trkpt lat="48.8984" lon="2.05607">
        <ele>99.5</ele>
      </trkpt>
      <trkpt lat="48.89764" lon="2.05464">
        <ele>78.2</ele>
      </trkpt>
      <trkpt lat="48.89638" lon="2.05309">
        <ele>81.2</ele>
      </trkpt>
      <trkpt lat="48.89661" lon="2.05251">
        <ele>81</ele>
      </trkpt>
      <trkpt lat="48.8951" lon="2.05042">
        <ele>87.8</ele>
        <time>2022-04-22T12:10:24Z</time>
      </trkpt>
      <trkpt lat="48.89414" lon="2.04979">
        <ele>91.3</ele>
        <time>2022-04-22T12:10:40Z</time>
      </trkpt>
      <trkpt lat="48.89371" lon="2.04987">
        <ele>92.9</ele>
        <time>2022-04-22T12:10:56Z</time>
      </trkpt>
      <trkpt lat="48.89291" lon="2.04964">
        <ele>94.5</ele>
        <time>2022-04-22T12:11:15Z</time>
      </trkpt>
      <trkpt lat="48.89128" lon="2.04991">
        <ele>98</ele>
        <time>2022-04-22T12:11:30Z</time>
      </trkpt>
      <trkpt lat="48.89049" lon="2.04753">
        <ele>106.5</ele>
        <time>2022-04-22T12:11:46Z</time>
      </trkpt>
      <trkpt lat="48.8905" lon="2.04696">
        <ele>107.4</ele>
      </trkpt>
      <trkpt lat="48.89046" lon="2.04686">
        <ele>107.9</ele>
      </trkpt>
      <trkpt lat="48.89043" lon="2.04683">
        <ele>108.1</ele>
      </trkpt>
      <trkpt lat="48.89001" lon="2.04583">
        <ele>114</ele>
        <time>2022-04-22T12:12:02Z</time>
      </trkpt>
      <trkpt lat="48.88946" lon="2.0444">
        <ele>119.2</ele>
        <time>2022-04-22T12:12:17Z</time>
      </trkpt>
      <trkpt lat="48.88818" lon="2.04567">
        <ele>122.9</ele>
      </trkpt>
      <trkpt lat="48.88684" lon="2.04595">
        <ele>123.6</ele>
        <time>2022-04-22T12:12:33Z</time>
      </trkpt>
      <trkpt lat="48.88473" lon="2.04616">
        <ele>119.8</ele>
        <time>2022-04-22T12:12:48Z</time>
      </trkpt>
      <trkpt lat="48.88384" lon="2.04601">
        <ele>118.7</ele>
      </trkpt>
      <trkpt lat="48.88229" lon="2.04481">
        <ele>141.7</ele>
      </trkpt>
      <trkpt lat="48.87853" lon="2.04185">
        <ele>163.3</ele>
      </trkpt>
      <trkpt lat="48.87606" lon="2.04071">
        <ele>175.2</ele>
        <time>2022-04-22T12:54:22Z</time>
      </trkpt>
      <trkpt lat="48.87488" lon="2.03968">
        <ele>178.4</ele>
      </trkpt>
      <trkpt lat="48.87386" lon="2.03908">
        <ele>181</ele>
        <time>2022-04-22T12:54:38Z</time>
      </trkpt>
      <trkpt lat="48.87177" lon="2.03732">
        <ele>180</ele>
        <time>2022-04-22T12:54:53Z</time>
      </trkpt>
      <trkpt lat="48.86963" lon="2.03692">
        <ele>174.3</ele>
        <time>2022-04-22T12:55:08Z</time>
      </trkpt>
      <trkpt lat="48.86824" lon="2.03648">
        <ele>176.2</ele>
        <time>2022-04-22T12:55:24Z</time>
      </trkpt>
      <trkpt lat="48.868" lon="2.0367">
        <ele>176</ele>
        <time>2022-04-22T12:55:39Z</time>
      </trkpt>
      <trkpt lat="48.86608" lon="2.03357">
        <ele>168.6</ele>
        <time>2022-04-22T12:55:55Z</time>
      </trkpt>
      <trkpt lat="48.86597" lon="2.03403">
        <ele>172.681335</ele>
        <time>2022-04-22T12:56:11Z</time>
      </trkpt>
      <trkpt lat="48.86552" lon="2.03518">
        <ele>168.68811</ele>
        <time>2022-04-22T12:56:27Z</time>
      </trkpt>
      <trkpt lat="48.8648" lon="2.03647">
        <ele>166.730835</ele>
        <time>2022-04-22T12:56:42Z</time>
      </trkpt>
      <trkpt lat="48.86423" lon="2.03745">
        <ele>169.18573</ele>
        <time>2022-04-22T12:56:58Z</time>
      </trkpt>
      <trkpt lat="48.86368" lon="2.0384">
        <ele>171.235443</ele>
        <time>2022-04-22T12:57:13Z</time>
      </trkpt>
      <trkpt lat="48.86299" lon="2.03969">
        <ele>166.544647</ele>
        <time>2022-04-22T12:57:28Z</time>
      </trkpt>
      <trkpt lat="48.86231" lon="2.04087">
        <ele>163.556946</ele>
        <time>2022-04-22T12:57:43Z</time>
      </trkpt>
      <trkpt lat="48.86173" lon="2.04192">
        <ele>159.220367</ele>
        <time>2022-04-22T12:57:58Z</time>
      </trkpt>
      <trkpt lat="48.86157" lon="2.04291">
        <ele>164.473465</ele>
        <time>2022-04-22T12:58:13Z</time>
      </trkpt>
      <trkpt lat="48.86129" lon="2.04414">
        <ele>170.090607</ele>
        <time>2022-04-22T12:58:29Z</time>
      </trkpt>
      <trkpt lat="48.86111" lon="2.04514">
        <ele>175.450012</ele>
        <time>2022-04-22T12:58:44Z</time>
      </trkpt>
      <trkpt lat="48.86088" lon="2.04607">
        <ele>176.252686</ele>
        <time>2022-04-22T12:58:59Z</time>
      </trkpt>
      <trkpt lat="48.86042" lon="2.04707">
        <ele>173.546066</ele>
        <time>2022-04-22T12:59:15Z</time>
      </trkpt>
      <trkpt lat="48.86004" lon="2.04798">
        <ele>171.987228</ele>
        <time>2022-04-22T12:59:30Z</time>
      </trkpt>
      <trkpt lat="48.85964" lon="2.04863">
        <ele>167.934402</ele>
        <time>2022-04-22T12:59:45Z</time>
      </trkpt>
      <trkpt lat="48.85929" lon="2.04949">
        <ele>168.889816</ele>
        <time>2022-04-22T13:00:01Z</time>
      </trkpt>
      <trkpt lat="48.85894" lon="2.05014">
        <ele>169.880554</ele>
        <time>2022-04-22T13:00:17Z</time>
      </trkpt>
      <trkpt lat="48.85866" lon="2.05075">
        <ele>169.58786</ele>
        <time>2022-04-22T13:00:32Z</time>
      </trkpt>
      <trkpt lat="48.8584" lon="2.05134">
        <ele>171.034103</ele>
        <time>2022-04-22T13:00:47Z</time>
      </trkpt>
      <trkpt lat="48.85798" lon="2.05193">
        <ele>172.877533</ele>
        <time>2022-04-22T13:01:02Z</time>
      </trkpt>
      <trkpt lat="48.8577" lon="2.05263">
        <ele>173.899826</ele>
        <time>2022-04-22T13:01:18Z</time>
      </trkpt>
      <trkpt lat="48.85736" lon="2.05365">
        <ele>174.77356</ele>
        <time>2022-04-22T13:01:34Z</time>
      </trkpt>
      <trkpt lat="48.8568" lon="2.05481">
        <ele>174.902557</ele>
        <time>2022-04-22T13:01:50Z</time>
      </trkpt>
      <trkpt lat="48.85626" lon="2.05593">
        <ele>176.908997</ele>
        <time>2022-04-22T13:02:06Z</time>
      </trkpt>
      <trkpt lat="48.8558" lon="2.05687">
        <ele>176.569702</ele>
        <time>2022-04-22T13:02:22Z</time>
      </trkpt>
      <trkpt lat="48.85534" lon="2.05783">
        <ele>178.917847</ele>
        <time>2022-04-22T13:02:38Z</time>
      </trkpt>
      <trkpt lat="48.85494" lon="2.05771">
        <ele>177.00769</ele>
        <time>2022-04-22T13:02:54Z</time>
      </trkpt>
      <trkpt lat="48.85484" lon="2.05788">
        <ele>176.730499</ele>
        <time>2022-04-22T13:04:10Z</time>
      </trkpt>
      <trkpt lat="48.85428" lon="2.05875">
        <ele>178.266586</ele>
        <time>2022-04-22T13:04:25Z</time>
      </trkpt>
      <trkpt lat="48.85371" lon="2.05968">
        <ele>176.892609</ele>
        <time>2022-04-22T13:04:40Z</time>
      </trkpt>
      <trkpt lat="48.85287" lon="2.06102">
        <ele>168.501007</ele>
        <time>2022-04-22T13:04:56Z</time>
      </trkpt>
      <trkpt lat="48.8522" lon="2.06214">
        <ele>162.719666</ele>
        <time>2022-04-22T13:05:11Z</time>
      </trkpt>
      <trkpt lat="48.85123" lon="2.0627">
        <ele>162.812256</ele>
        <time>2022-04-22T13:05:27Z</time>
      </trkpt>
      <trkpt lat="48.85039" lon="2.06281">
        <ele>159.988464</ele>
        <time>2022-04-22T13:05:42Z</time>
      </trkpt>
      <trkpt lat="48.84973" lon="2.06355">
        <ele>161.776825</ele>
        <time>2022-04-22T13:05:58Z</time>
      </trkpt>
      <trkpt lat="48.84937" lon="2.06425">
        <ele>165.400116</ele>
        <time>2022-04-22T13:06:13Z</time>
      </trkpt>
      <trkpt lat="48.84883" lon="2.06463">
        <ele>165.341553</ele>
        <time>2022-04-22T13:06:29Z</time>
      </trkpt>
      <trkpt lat="48.84847" lon="2.06466">
        <ele>158.3</ele>
        <time>2022-04-22T13:06:44Z</time>
      </trkpt>
      <trkpt lat="48.84813" lon="2.06503">
        <ele>161.1</ele>
        <time>2022-04-22T13:07:27Z</time>
      </trkpt>
      <trkpt lat="48.84803" lon="2.06546">
        <ele>166.1</ele>
      </trkpt>
      <trkpt lat="48.84796" lon="2.0661">
        <ele>173.2</ele>
        <time>2022-04-22T13:07:43Z</time>
      </trkpt>
      <trkpt lat="48.84785" lon="2.06706">
        <ele>180</ele>
        <time>2022-04-22T13:07:58Z</time>
      </trkpt>
      <trkpt lat="48.84769" lon="2.06713">
        <ele>179.7</ele>
      </trkpt>
      <trkpt lat="48.84754" lon="2.06769">
        <ele>179.1</ele>
        <time>2022-04-22T13:08:14Z</time>
      </trkpt>
      <trkpt lat="48.84746" lon="2.06803">
        <ele>179.5</ele>
      </trkpt>
      <trkpt lat="48.84742" lon="2.06827">
        <ele>179.3</ele>
        <time>2022-04-22T13:08:30Z</time>
      </trkpt>
      <trkpt lat="48.84741" lon="2.06848">
        <ele>179.3</ele>
      </trkpt>
      <trkpt lat="48.8474" lon="2.06858">
        <ele>179.3</ele>
      </trkpt>
      <trkpt lat="48.84746" lon="2.06917">
        <ele>179.7</ele>
      </trkpt>
      <trkpt lat="48.84757" lon="2.06979">
        <ele>178.8</ele>
      </trkpt>
      <trkpt lat="48.84688" lon="2.07068">
        <ele>165</ele>
        <time>2022-04-22T13:08:45Z</time>
      </trkpt>
      <trkpt lat="48.84644" lon="2.07111">
        <ele>160</ele>
        <time>2022-04-22T13:09:00Z</time>
      </trkpt>
      <trkpt lat="48.8461" lon="2.07138">
        <ele>158</ele>
        <time>2022-04-22T13:09:16Z</time>
      </trkpt>
      <trkpt lat="48.8458" lon="2.07167">
        <ele>155.9</ele>
      </trkpt>
      <trkpt lat="48.84575" lon="2.07217">
        <ele>151.6</ele>
      </trkpt>
      <trkpt lat="48.84579" lon="2.07238">
        <ele>149.2</ele>
        <time>2022-04-22T13:09:31Z</time>
      </trkpt>
      <trkpt lat="48.84582" lon="2.07267">
        <ele>147.3</ele>
      </trkpt>
      <trkpt lat="48.84594" lon="2.07282">
        <ele>147.7</ele>
        <time>2022-04-22T13:09:47Z</time>
      </trkpt>
      <trkpt lat="48.84527" lon="2.07359">
        <ele>145.8</ele>
      </trkpt>
      <trkpt lat="48.84492" lon="2.07398">
        <ele>144.1</ele>
        <time>2022-04-22T13:10:02Z</time>
      </trkpt>
      <trkpt lat="48.84474" lon="2.07511">
        <ele>150.8</ele>
        <time>2022-04-22T13:10:17Z</time>
      </trkpt>
      <trkpt lat="48.84458" lon="2.07582">
        <ele>153.8</ele>
      </trkpt>
      <trkpt lat="48.84448" lon="2.07653">
        <ele>155</ele>
        <time>2022-04-22T13:10:32Z</time>
      </trkpt>
      <trkpt lat="48.84441" lon="2.07746">
        <ele>155.7</ele>
      </trkpt>
      <trkpt lat="48.84442" lon="2.07803">
        <ele>154.7</ele>
        <time>2022-04-22T13:10:48Z</time>
      </trkpt>
      <trkpt lat="48.84472" lon="2.07938">
        <ele>159.9</ele>
        <time>2022-04-22T13:11:04Z</time>
      </trkpt>
      <trkpt lat="48.84493" lon="2.07964">
        <ele>162.3</ele>
        <time>2022-04-22T13:11:20Z</time>
      </trkpt>
      <trkpt lat="48.84438" lon="2.08042">
        <ele>151.2</ele>
      </trkpt>
      <trkpt lat="48.84388" lon="2.08119">
        <ele>151.5</ele>
        <time>2022-04-22T13:11:35Z</time>
      </trkpt>
      <trkpt lat="48.84376" lon="2.08212">
        <ele>154.416687</ele>
        <time>2022-04-22T13:11:51Z</time>
      </trkpt>
      <trkpt lat="48.84368" lon="2.08242">
        <ele>153.09729</ele>
        <time>2022-04-22T13:12:07Z</time>
      </trkpt>
      <trkpt lat="48.84363" lon="2.08262">
        <ele>152.533035</ele>
        <time>2022-04-22T13:12:43Z</time>
      </trkpt>
      <trkpt lat="48.84331" lon="2.08388">
        <ele>152.564484</ele>
        <time>2022-04-22T13:12:59Z</time>
      </trkpt>
      <trkpt lat="48.84301" lon="2.08472">
        <ele>157.258636</ele>
        <time>2022-04-22T13:13:14Z</time>
      </trkpt>
      <trkpt lat="48.84235" lon="2.08595">
        <ele>152.83252</ele>
        <time>2022-04-22T13:13:30Z</time>
      </trkpt>
      <trkpt lat="48.84179" lon="2.08669">
        <ele>153.448318</ele>
        <time>2022-04-22T13:13:45Z</time>
      </trkpt>
      <trkpt lat="48.84119" lon="2.08731">
        <ele>155.535355</ele>
        <time>2022-04-22T13:14:00Z</time>
      </trkpt>
      <trkpt lat="48.84061" lon="2.08791">
        <ele>155.386841</ele>
        <time>2022-04-22T13:14:16Z</time>
      </trkpt>
      <trkpt lat="48.83995" lon="2.08892">
        <ele>152.516113</ele>
        <time>2022-04-22T13:14:31Z</time>
      </trkpt>
      <trkpt lat="48.83952" lon="2.09029">
        <ele>149.408691</ele>
        <time>2022-04-22T13:14:46Z</time>
      </trkpt>
      <trkpt lat="48.83948" lon="2.09175">
        <ele>150.155487</ele>
        <time>2022-04-22T13:15:02Z</time>
      </trkpt>
      <trkpt lat="48.83942" lon="2.09291">
        <ele>153.608765</ele>
        <time>2022-04-22T13:15:17Z</time>
      </trkpt>
      <trkpt lat="48.83841" lon="2.09389">
        <ele>136.911285</ele>
        <time>2022-04-22T13:15:32Z</time>
      </trkpt>
      <trkpt lat="48.83851" lon="2.09534">
        <ele>138.63678</ele>
        <time>2022-04-22T13:15:48Z</time>
      </trkpt>
      <trkpt lat="48.83863" lon="2.09662">
        <ele>143.440887</ele>
        <time>2022-04-22T13:16:04Z</time>
      </trkpt>
      <trkpt lat="48.83866" lon="2.09781">
        <ele>146.440567</ele>
        <time>2022-04-22T13:16:20Z</time>
      </trkpt>
      <trkpt lat="48.83859" lon="2.09886">
        <ele>148.898315</ele>
        <time>2022-04-22T13:16:36Z</time>
      </trkpt>
      <trkpt lat="48.83854" lon="2.09923">
        <ele>149.713196</ele>
        <time>2022-04-22T13:16:51Z</time>
      </trkpt>
      <trkpt lat="48.83854" lon="2.09944">
        <ele>150.470123</ele>
        <time>2022-04-22T13:19:17Z</time>
      </trkpt>
      <trkpt lat="48.83849" lon="2.09964">
        <ele>150.813873</ele>
        <time>2022-04-22T13:21:01Z</time>
      </trkpt>
      <trkpt lat="48.83849" lon="2.09998">
        <ele>152.02951</ele>
        <time>2022-04-22T13:21:17Z</time>
      </trkpt>
      <trkpt lat="48.83841" lon="2.10104">
        <ele>150.964493</ele>
        <time>2022-04-22T13:21:33Z</time>
      </trkpt>
      <trkpt lat="48.83829" lon="2.10228">
        <ele>151.011353</ele>
        <time>2022-04-22T13:21:49Z</time>
      </trkpt>
      <trkpt lat="48.83824" lon="2.10385">
        <ele>149.388947</ele>
        <time>2022-04-22T13:22:04Z</time>
      </trkpt>
      <trkpt lat="48.83823" lon="2.10548">
        <ele>146.723251</ele>
        <time>2022-04-22T13:22:20Z</time>
      </trkpt>
      <trkpt lat="48.83825" lon="2.10671">
        <ele>150.914001</ele>
        <time>2022-04-22T13:22:36Z</time>
      </trkpt>
      <trkpt lat="48.83813" lon="2.10798">
        <ele>157.26976</ele>
        <time>2022-04-22T13:22:52Z</time>
      </trkpt>
      <trkpt lat="48.83806" lon="2.10917">
        <ele>160.667557</ele>
        <time>2022-04-22T13:23:08Z</time>
      </trkpt>
      <trkpt lat="48.83801" lon="2.11022">
        <ele>159.362915</ele>
        <time>2022-04-22T13:23:23Z</time>
      </trkpt>
      <trkpt lat="48.83774" lon="2.11082">
        <ele>155.663986</ele>
        <time>2022-04-22T13:23:39Z</time>
      </trkpt>
      <trkpt lat="48.83787" lon="2.1113">
        <ele>158.707306</ele>
        <time>2022-04-22T13:23:55Z</time>
      </trkpt>
      <trkpt lat="48.83737" lon="2.11166">
        <ele>155.078049</ele>
        <time>2022-04-22T13:24:10Z</time>
      </trkpt>
      <trkpt lat="48.83703" lon="2.11247">
        <ele>153.614212</ele>
        <time>2022-04-22T13:24:25Z</time>
      </trkpt>
      <trkpt lat="48.83673" lon="2.11326">
        <ele>152.471832</ele>
        <time>2022-04-22T13:24:41Z</time>
      </trkpt>
      <trkpt lat="48.83616" lon="2.11415">
        <ele>154.283661</ele>
        <time>2022-04-22T13:24:57Z</time>
      </trkpt>
      <trkpt lat="48.83604" lon="2.11537">
        <ele>156.607315</ele>
        <time>2022-04-22T13:25:12Z</time>
      </trkpt>
      <trkpt lat="48.83625" lon="2.1167">
        <ele>159.966736</ele>
        <time>2022-04-22T13:25:28Z</time>
      </trkpt>
      <trkpt lat="48.83635" lon="2.11796">
        <ele>162.703796</ele>
        <time>2022-04-22T13:25:44Z</time>
      </trkpt>
      <trkpt lat="48.83632" lon="2.11914">
        <ele>162.938705</ele>
        <time>2022-04-22T13:26:00Z</time>
      </trkpt>
      <trkpt lat="48.83625" lon="2.12015">
        <ele>165.505035</ele>
        <time>2022-04-22T13:26:16Z</time>
      </trkpt>
      <trkpt lat="48.83615" lon="2.12086">
        <ele>167.425354</ele>
        <time>2022-04-22T13:26:31Z</time>
      </trkpt>
      <trkpt lat="48.836" lon="2.12187">
        <ele>170.975784</ele>
        <time>2022-04-22T13:26:46Z</time>
      </trkpt>
      <trkpt lat="48.83576" lon="2.12299">
        <ele>173.768509</ele>
        <time>2022-04-22T13:27:02Z</time>
      </trkpt>
      <trkpt lat="48.83555" lon="2.1242">
        <ele>175.325424</ele>
        <time>2022-04-22T13:27:17Z</time>
      </trkpt>
      <trkpt lat="48.83529" lon="2.12549">
        <ele>175.229004</ele>
        <time>2022-04-22T13:27:32Z</time>
      </trkpt>
      <trkpt lat="48.83514" lon="2.12683">
        <ele>175.836746</ele>
        <time>2022-04-22T13:27:48Z</time>
      </trkpt>
      <trkpt lat="48.83512" lon="2.12811">
        <ele>177.29126</ele>
        <time>2022-04-22T13:28:04Z</time>
      </trkpt>
      <trkpt lat="48.83524" lon="2.1292">
        <ele>175.566406</ele>
        <time>2022-04-22T13:28:19Z</time>
      </trkpt>
      <trkpt lat="48.835" lon="2.1295">
        <ele>174</ele>
        <time>2022-04-22T13:28:34Z</time>
      </trkpt>
      <trkpt lat="48.83487" lon="2.13081">
        <ele>174.5</ele>
      </trkpt>
      <trkpt lat="48.83464" lon="2.1309">
        <ele>175</ele>
        <time>2022-04-22T13:28:50Z</time>
      </trkpt>
      <trkpt lat="48.83435" lon="2.13128">
        <ele>175.4</ele>
      </trkpt>
      <trkpt lat="48.83413" lon="2.13181">
        <ele>176</ele>
        <time>2022-04-22T13:29:05Z</time>
      </trkpt>
      <trkpt lat="48.83377" lon="2.13277">
        <ele>177.746002</ele>
        <time>2022-04-22T13:29:20Z</time>
      </trkpt>
      <trkpt lat="48.83374" lon="2.13276">
        <ele>176</ele>
      </trkpt>
      <trkpt lat="48.83342" lon="2.13306">
        <ele>176</ele>
      </trkpt>
      <trkpt lat="48.83325" lon="2.13341">
        <ele>175.7</ele>
        <time>2022-04-22T13:29:36Z</time>
      </trkpt>
      <trkpt lat="48.83323" lon="2.13352">
        <ele>175.6</ele>
      </trkpt>
      <trkpt lat="48.83315" lon="2.13389">
        <ele>176</ele>
      </trkpt>
      <trkpt lat="48.83307" lon="2.13418">
        <ele>176</ele>
        <time>2022-04-22T13:29:52Z</time>
      </trkpt>
      <trkpt lat="48.83271" lon="2.13392">
        <ele>174.5</ele>
      </trkpt>
      <trkpt lat="48.83244" lon="2.134">
        <ele>172.9</ele>
      </trkpt>
      <trkpt lat="48.83224" lon="2.13363">
        <ele>170.2</ele>
      </trkpt>
      <trkpt lat="48.83215" lon="2.13352">
        <ele>169.1</ele>
        <time>2022-04-22T13:30:07Z</time>
      </trkpt>
      <trkpt lat="48.83211" lon="2.13342">
        <ele>168.5</ele>
      </trkpt>
      <trkpt lat="48.83187" lon="2.1333">
        <ele>164.9</ele>
      </trkpt>
      <trkpt lat="48.83167" lon="2.1334">
        <ele>162.2</ele>
      </trkpt>
      <trkpt lat="48.83145" lon="2.13324">
        <ele>158.5</ele>
      </trkpt>
      <trkpt lat="48.83134" lon="2.13331">
        <ele>157.4</ele>
      </trkpt>
      <trkpt lat="48.831" lon="2.13313">
        <ele>153.5</ele>
        <time>2022-04-22T13:30:22Z</time>
      </trkpt>
      <trkpt lat="48.83011" lon="2.13267">
        <ele>146.3</ele>
        <time>2022-04-22T13:30:38Z</time>
      </trkpt>
      <trkpt lat="48.82977" lon="2.13249">
        <ele>144.2</ele>
      </trkpt>
      <trkpt lat="48.82958" lon="2.13242">
        <ele>143.9</ele>
      </trkpt>
      <trkpt lat="48.82947" lon="2.13251">
        <ele>144</ele>
      </trkpt>
      <trkpt lat="48.82932" lon="2.13241">
        <ele>143.2</ele>
        <time>2022-04-22T13:30:54Z</time>
      </trkpt>
      <trkpt lat="48.829" lon="2.13321">
        <ele>143.2</ele>
      </trkpt>
    </trkseg>
  </trk>
</gpx>